Terminal Aerodrome Forecast
Issued by NWS

Home | Current Version | Previous Version | Text Only | Print | Product List | Glossary On
Versions: 1 2 3 4 5 6 7 8 9 10 11 12 13 14 15 16 17 18
000
FTUS44 KHGX 170523
TAFSGR
TAF
KSGR 170523Z 1706/1806 34013KT P6SM BKN007 OVC024
     FM170700 34008KT 2SM BR OVC007
     FM171200 01003KT 2SM BR BKN007 BKN250
     FM171800 12005KT P6SM FEW015 BKN250
     FM180500 VRB04KT 4SM BR BKN015=

USA.gov is the U.S. government's official web portal to all federal, state and local government web resources and services.